Time;durP1;ratioP1;P1;durP2;ratioP2;P2;SDS_P1;SDS_P2;PMS_P1;PMS_P2;Temp;Humidity;BMP_temperature;BMP_pressure;BME280_temperature;BME280_humidity;BME280_pressure;Samples;Min_cycle;Max_cycle;Signal;HPM_P1;HPM_P2
2021/04/18 00:00:57;;;;;;;12.88;5.70;;;0.90;99.90;;;;;;2094385;28;20025;-63
2021/04/18 00:01:57;;;;;;;13.95;6.05;;;0.90;99.90;;;;;;2094645;28;20016;-62
2021/04/18 00:02:58;;;;;;;12.95;6.18;;;0.90;99.90;;;;;;2095405;28;20017;-62
2021/04/18 00:03:59;;;;;;;17.33;6.30;;;0.90;99.90;;;;;;2095242;28;20013;-62
2021/04/18 00:05:00;;;;;;;15.40;6.53;;;0.90;99.90;;;;;;2095060;28;20009;-62
2021/04/18 00:06:01;;;;;;;10.95;6.00;;;0.80;99.90;;;;;;2095037;28;20032;-62
2021/04/18 00:07:02;;;;;;;12.50;6.03;;;0.80;99.90;;;;;;2095350;28;20012;-62
2021/04/18 00:08:03;;;;;;;18.02;6.60;;;0.80;99.90;;;;;;2093065;28;20028;-61
2021/04/18 00:09:10;;;;;;;13.70;5.85;;;0.80;99.90;;;;;;2094379;28;20096;-62
2021/04/18 00:10:11;;;;;;;15.95;7.35;;;0.80;99.90;;;;;;2089365;28;20116;-62
2021/04/18 00:11:13;;;;;;;12.60;6.25;;;0.80;99.90;;;;;;2094590;28;20681;-62
2021/04/18 00:12:13;;;;;;;15.98;7.07;;;0.80;99.90;;;;;;2085880;28;20036;-62
2021/04/18 00:13:15;;;;;;;13.18;6.38;;;0.80;99.90;;;;;;2089470;28;20032;-62
2021/04/18 00:14:16;;;;;;;14.02;6.85;;;0.80;99.90;;;;;;2089420;28;20488;-62
2021/04/18 00:15:17;;;;;;;16.30;7.20;;;0.70;99.90;;;;;;2086818;28;20037;-62
2021/04/18 00:16:18;;;;;;;14.35;6.15;;;0.70;99.90;;;;;;2081483;28;20508;-62
2021/04/18 00:17:19;;;;;;;13.85;6.35;;;0.70;99.90;;;;;;2085473;28;20025;-62
2021/04/18 00:18:19;;;;;;;13.98;6.35;;;0.70;99.90;;;;;;2089699;28;20045;-62
2021/04/18 00:19:20;;;;;;;16.95;7.40;;;0.70;99.90;;;;;;2089544;28;20025;-62
2021/04/18 00:20:21;;;;;;;17.17;8.32;;;0.70;99.90;;;;;;2089540;28;20028;-62
2021/04/18 00:21:22;;;;;;;19.95;7.47;;;0.70;99.90;;;;;;2089783;28;20035;-62
2021/04/18 00:22:22;;;;;;;14.18;7.22;;;0.60;99.90;;;;;;2089793;28;20033;-62
2021/04/18 00:23:23;;;;;;;18.10;7.65;;;0.60;99.90;;;;;;2081190;28;20030;-62
2021/04/18 00:24:23;;;;;;;20.08;7.55;;;0.60;99.90;;;;;;2081270;28;20032;-62
2021/04/18 00:25:24;;;;;;;16.40;7.68;;;0.60;99.90;;;;;;2083389;28;20071;-62
2021/04/18 00:26:25;;;;;;;21.80;6.75;;;0.60;99.90;;;;;;2089473;28;20071;-62
2021/04/18 00:27:26;;;;;;;14.60;7.00;;;0.50;99.90;;;;;;2087441;28;20017;-62
2021/04/18 00:28:27;;;;;;;16.00;6.65;;;0.50;99.90;;;;;;2088845;28;20616;-62
2021/04/18 00:29:27;;;;;;;16.35;6.32;;;0.50;99.90;;;;;;2084369;28;20041;-62
2021/04/18 00:30:28;;;;;;;14.43;7.10;;;0.50;99.90;;;;;;2087640;28;20104;-62
2021/04/18 00:31:29;;;;;;;19.38;7.15;;;0.50;99.90;;;;;;2088991;28;20025;-62
2021/04/18 00:32:29;;;;;;;21.85;8.00;;;0.50;99.90;;;;;;2089245;28;20033;-62
2021/04/18 00:33:30;;;;;;;17.23;7.63;;;0.50;99.90;;;;;;2089741;28;20029;-62
2021/04/18 00:34:31;;;;;;;23.15;7.28;;;0.50;99.90;;;;;;2087531;28;20090;-62
2021/04/18 00:35:32;;;;;;;16.45;8.05;;;0.50;99.90;;;;;;2088658;28;20143;-62
2021/04/18 00:36:32;;;;;;;17.77;7.03;;;0.50;99.90;;;;;;2086284;28;20022;-62
2021/04/18 00:37:33;;;;;;;21.20;7.97;;;0.50;99.90;;;;;;2081573;28;20732;-62
2021/04/18 00:38:35;;;;;;;16.85;7.72;;;0.50;99.90;;;;;;2089268;28;20033;-62
2021/04/18 00:39:36;;;;;;;19.13;7.28;;;0.60;99.90;;;;;;2087624;28;20036;-62
2021/04/18 00:40:38;;;;;;;16.15;7.20;;;0.60;99.90;;;;;;2081210;28;20033;-61
2021/04/18 00:41:38;;;;;;;16.30;7.43;;;0.50;99.90;;;;;;2086699;28;20025;-62
2021/04/18 00:42:40;;;;;;;15.60;6.95;;;0.50;99.90;;;;;;2097207;28;20024;-62
2021/04/18 00:43:45;;;;;;;16.02;7.10;;;0.50;99.90;;;;;;2102001;28;20024;-62
2021/04/18 00:44:45;;;;;;;20.08;6.72;;;0.50;99.90;;;;;;2081508;28;20021;-62
2021/04/18 00:45:46;;;;;;;15.50;7.35;;;0.50;99.90;;;;;;2083891;28;20393;-61
2021/04/18 00:46:48;;;;;;;13.88;6.88;;;0.50;99.90;;;;;;2088805;28;20021;-62
2021/04/18 00:47:53;;;;;;;14.95;6.65;;;0.50;99.90;;;;;;2088554;28;20033;-62
2021/04/18 00:48:54;;;;;;;21.77;7.40;;;0.40;99.90;;;;;;2089849;28;20110;-62
2021/04/18 00:49:55;;;;;;;19.02;6.97;;;0.40;99.90;;;;;;2088682;28;20467;-62
2021/04/18 00:50:55;;;;;;;15.18;6.95;;;0.40;99.90;;;;;;2088796;28;20017;-62
2021/04/18 00:51:56;;;;;;;20.02;7.60;;;0.40;99.90;;;;;;2088353;28;20044;-62
2021/04/18 00:52:57;;;;;;;18.85;7.15;;;0.30;99.90;;;;;;2088105;28;20021;-61
2021/04/18 00:53:58;;;;;;;15.73;6.78;;;0.30;99.90;;;;;;2081156;28;20021;-62
2021/04/18 00:54:59;;;;;;;15.23;6.65;;;0.30;99.90;;;;;;2083944;28;20025;-62
2021/04/18 00:55:59;;;;;;;14.55;7.00;;;0.20;99.90;;;;;;2088075;28;20033;-62
2021/04/18 00:57:00;;;;;;;17.90;7.63;;;0.20;99.90;;;;;;2089543;28;20045;-62
2021/04/18 00:58:02;;;;;;;18.80;7.07;;;0.20;99.90;;;;;;2082297;28;20040;-62
2021/04/18 00:59:03;;;;;;;;;;;0.20;99.90;;;;;;2083908;28;20013;-61
2021/04/18 01:00:06;;;;;;;18.38;6.93;;;0.20;99.90;;;;;;2084020;28;20519;-62
2021/04/18 01:01:07;;;;;;;16.05;6.65;;;0.10;99.90;;;;;;2088342;28;20055;-62
2021/04/18 01:02:08;;;;;;;16.42;7.55;;;0.10;99.90;;;;;;2088394;28;20106;-62
2021/04/18 01:03:09;;;;;;;18.30;7.90;;;0.10;99.90;;;;;;2088599;28;20596;-62
2021/04/18 01:04:09;;;;;;;20.83;7.78;;;0.20;99.90;;;;;;2088955;28;20025;-62
2021/04/18 01:05:11;;;;;;;21.25;7.85;;;0.10;99.90;;;;;;2088972;28;20028;-62
2021/04/18 01:06:12;;;;;;;21.73;7.80;;;0.20;99.90;;;;;;2087585;28;20032;-62
2021/04/18 01:07:12;;;;;;;20.67;8.30;;;0.20;99.90;;;;;;2088483;28;20048;-62
2021/04/18 01:08:13;;;;;;;19.02;8.18;;;0.20;99.90;;;;;;2089317;28;20131;-62
2021/04/18 01:09:13;;;;;;;22.80;7.45;;;0.20;99.90;;;;;;2089509;28;20017;-63
2021/04/18 01:10:17;;;;;;;19.05;7.80;;;0.20;99.90;;;;;;2089339;28;20032;-62
2021/04/18 01:11:17;;;;;;;18.85;7.70;;;0.20;99.90;;;;;;2089505;28;20782;-62
2021/04/18 01:12:18;;;;;;;22.55;8.10;;;0.10;99.90;;;;;;2088407;28;20025;-62
2021/04/18 01:13:19;;;;;;;22.83;8.60;;;0.10;99.90;;;;;;2086950;28;20033;-62
2021/04/18 01:14:20;;;;;;;17.50;7.78;;;0.10;99.90;;;;;;2082314;28;20029;-62
2021/04/18 01:15:21;;;;;;;20.52;8.02;;;0.10;99.90;;;;;;2080984;28;20022;-62
2021/04/18 01:16:22;;;;;;;21.92;7.85;;;0.10;99.90;;;;;;2081094;28;20481;-61
2021/04/18 01:17:23;;;;;;;17.33;7.72;;;0.10;99.90;;;;;;2086678;28;20028;-62
2021/04/18 01:18:24;;;;;;;17.05;8.13;;;0.10;99.90;;;;;;2087099;28;20040;-62
2021/04/18 01:19:24;;;;;;;21.90;8.48;;;0.10;99.90;;;;;;2084732;28;20059;-62
2021/04/18 01:20:25;;;;;;;19.20;7.68;;;0.10;99.90;;;;;;2088670;28;20021;-62
2021/04/18 01:21:26;;;;;;;20.27;7.53;;;0.00;99.90;;;;;;2089341;28;20497;-62
2021/04/18 01:22:27;;;;;;;19.67;6.63;;;0.10;99.90;;;;;;2088639;28;20173;-61
2021/04/18 01:23:27;;;;;;;20.38;7.63;;;0.10;99.90;;;;;;2089207;28;20032;-62
2021/04/18 01:24:29;;;;;;;15.93;6.85;;;0.10;99.90;;;;;;2084144;28;20013;-62
2021/04/18 01:25:29;;;;;;;12.32;6.68;;;0.10;99.90;;;;;;2081545;28;20494;-62
2021/04/18 01:26:31;;;;;;;18.05;7.07;;;0.10;99.90;;;;;;2083384;28;20029;-62
2021/04/18 01:27:31;;;;;;;18.83;7.03;;;0.10;99.90;;;;;;2088400;28;20143;-62
2021/04/18 01:28:33;;;;;;;22.67;7.10;;;0.10;99.90;;;;;;2088064;28;20840;-62
2021/04/18 01:29:34;;;;;;;14.27;6.23;;;0.10;99.90;;;;;;2084617;28;20017;-61
2021/04/18 01:30:35;;;;;;;14.50;7.50;;;0.10;99.90;;;;;;2089144;28;20334;-62
2021/04/18 01:31:36;;;;;;;17.05;7.47;;;0.10;99.90;;;;;;2088835;28;20052;-61
2021/04/18 01:32:38;;;;;;;19.15;7.88;;;0.20;99.90;;;;;;2084161;28;20029;-61
2021/04/18 01:33:39;;;;;;;14.95;7.05;;;0.10;99.90;;;;;;2081210;28;20079;-61
2021/04/18 01:34:42;;;;;;;17.40;7.10;;;0.10;99.90;;;;;;2087028;28;20696;-61
2021/04/18 01:35:46;;;;;;;19.25;7.38;;;0.10;99.90;;;;;;2080137;28;20501;-62
2021/04/18 01:36:48;;;;;;;15.45;6.88;;;0.00;99.90;;;;;;2088294;28;20032;-62
2021/04/18 01:37:49;;;;;;;17.05;6.88;;;0.00;99.90;;;;;;2088883;28;20021;-62
2021/04/18 01:38:50;;;;;;;15.93;7.03;;;0.00;99.90;;;;;;2087384;28;20484;-61
2021/04/18 01:39:51;;;;;;;20.27;7.32;;;0.00;99.90;;;;;;2086664;28;20565;-62
2021/04/18 01:40:52;;;;;;;17.30;8.05;;;-0.10;99.90;;;;;;2084431;28;20029;-62
2021/04/18 01:41:53;;;;;;;19.63;7.13;;;0.00;99.90;;;;;;2086449;28;20025;-62
2021/04/18 01:42:54;;;;;;;16.77;7.22;;;0.00;99.90;;;;;;2083970;28;20074;-62
2021/04/18 01:43:54;;;;;;;17.40;7.70;;;0.00;99.90;;;;;;2085715;28;20020;-62
2021/04/18 01:44:55;;;;;;;19.45;7.78;;;0.10;99.90;;;;;;2086237;28;20028;-62
2021/04/18 01:45:56;;;;;;;21.40;7.30;;;0.10;99.90;;;;;;2082955;28;20495;-62
2021/04/18 01:46:57;;;;;;;15.30;7.47;;;0.10;99.90;;;;;;2082920;28;20025;-62
2021/04/18 01:47:57;;;;;;;17.67;7.32;;;0.20;99.90;;;;;;2085097;28;20013;-62
2021/04/18 01:48:58;;;;;;;17.55;7.40;;;0.20;99.90;;;;;;2085660;28;20114;-62
2021/04/18 01:49:59;;;;;;;16.83;7.15;;;0.30;99.90;;;;;;2088365;28;20040;-62
2021/04/18 01:51:04;;;;;;;18.30;7.18;;;0.40;99.90;;;;;;2082883;28;20045;-62
2021/04/18 01:52:05;;;;;;;15.35;7.05;;;0.30;99.90;;;;;;2087997;28;20542;-62
2021/04/18 01:53:06;;;;;;;17.45;7.20;;;0.30;99.90;;;;;;2082613;28;20045;-62
2021/04/18 01:54:07;;;;;;;16.95;7.10;;;0.30;99.90;;;;;;2089069;28;20496;-62
2021/04/18 01:55:09;;;;;;;21.77;7.57;;;0.30;99.90;;;;;;2089150;28;20013;-62
2021/04/18 01:56:10;;;;;;;17.40;6.60;;;0.20;99.90;;;;;;2097181;28;20016;-62
2021/04/18 01:57:10;;;;;;;16.40;7.82;;;0.20;99.90;;;;;;2085382;28;20033;-62
2021/04/18 01:58:11;;;;;;;15.55;7.10;;;0.20;99.90;;;;;;2081241;28;20108;-62
2021/04/18 01:59:12;;;;;;;19.70;6.85;;;0.20;99.90;;;;;;2084182;28;20025;-62
2021/04/18 02:00:13;;;;;;;19.75;7.82;;;0.20;99.90;;;;;;2083692;28;20109;-62
2021/04/18 02:01:14;;;;;;;12.13;5.65;;;0.20;99.90;;;;;;2085225;28;20726;-62
2021/04/18 02:02:15;;;;;;;22.83;7.88;;;0.10;99.90;;;;;;2088262;28;20032;-63
2021/04/18 02:03:16;;;;;;;19.50;6.97;;;0.10;99.90;;;;;;2088115;28;20496;-62
2021/04/18 02:04:24;;;;;;;19.52;7.75;;;0.10;99.90;;;;;;2088251;28;20025;-62
2021/04/18 02:05:28;;;;;;;15.52;6.80;;;0.10;99.90;;;;;;2088481;28;20057;-62
2021/04/18 02:06:29;;;;;;;15.98;7.10;;;0.10;99.90;;;;;;2086723;28;20635;-62
2021/04/18 02:07:30;;;;;;;17.23;7.65;;;0.10;99.90;;;;;;2088041;28;20049;-62
2021/04/18 02:08:30;;;;;;;20.13;7.97;;;0.00;99.90;;;;;;2083771;28;20032;-62
2021/04/18 02:09:32;;;;;;;22.83;7.57;;;0.00;99.90;;;;;;2088353;28;20729;-62
2021/04/18 02:10:32;;;;;;;22.50;7.45;;;0.00;99.90;;;;;;2088074;28;20025;-62
2021/04/18 02:11:37;;;;;;;19.40;8.07;;;0.00;99.90;;;;;;2087902;28;20021;-62
2021/04/18 02:12:38;;;;;;;18.13;7.88;;;0.00;99.90;;;;;;2080779;28;20033;-62
2021/04/18 02:13:39;;;;;;;26.92;7.82;;;0.00;99.90;;;;;;2082777;28;20029;-62
2021/04/18 02:14:40;;;;;;;22.23;7.78;;;-0.10;99.90;;;;;;2079155;28;20029;-62
2021/04/18 02:15:40;;;;;;;16.02;7.40;;;0.00;99.90;;;;;;2086074;28;20033;-62
2021/04/18 02:16:41;;;;;;;18.58;7.80;;;-0.10;99.90;;;;;;2084837;28;20032;-62
2021/04/18 02:17:42;;;;;;;17.80;7.10;;;-0.10;99.90;;;;;;2088803;28;20025;-62
2021/04/18 02:18:42;;;;;;;24.98;8.10;;;-0.20;99.90;;;;;;2088856;28;20029;-62
2021/04/18 02:19:43;;;;;;;16.60;6.82;;;-0.20;99.90;;;;;;2083191;28;20235;-62
2021/04/18 02:20:44;;;;;;;17.83;7.13;;;-0.20;99.90;;;;;;2081619;28;20029;-62
2021/04/18 02:21:44;;;;;;;17.63;7.32;;;-0.20;99.90;;;;;;2080318;28;20026;-62
2021/04/18 02:22:45;;;;;;;22.00;7.85;;;-0.20;99.90;;;;;;2080263;28;20080;-62
2021/04/18 02:23:46;;;;;;;21.30;8.13;;;-0.20;99.90;;;;;;2082830;28;20067;-62
2021/04/18 02:24:47;;;;;;;20.52;6.93;;;-0.20;99.90;;;;;;2082152;28;20018;-62
2021/04/18 02:25:47;;;;;;;24.08;8.05;;;-0.20;99.90;;;;;;2081402;28;20022;-62
2021/04/18 02:26:48;;;;;;;19.55;7.05;;;-0.20;99.90;;;;;;2083019;28;20021;-62
2021/04/18 02:27:49;;;;;;;21.08;7.55;;;-0.10;99.90;;;;;;2084017;28;20017;-62
2021/04/18 02:28:50;;;;;;;17.17;7.57;;;-0.10;99.90;;;;;;2082607;28;20892;-62
2021/04/18 02:29:50;;;;;;;16.77;7.38;;;-0.10;99.90;;;;;;2080481;28;20565;-62
2021/04/18 02:30:51;;;;;;;22.30;7.10;;;0.00;99.90;;;;;;2080918;28;20420;-62
2021/04/18 02:31:52;;;;;;;21.92;7.72;;;0.00;99.90;;;;;;2088830;28;20373;-62
2021/04/18 02:32:52;;;;;;;17.50;7.13;;;0.00;99.90;;;;;;2088632;28;20549;-62
2021/04/18 02:33:53;;;;;;;22.92;7.55;;;0.00;99.90;;;;;;2088898;28;20368;-63
2021/04/18 02:34:54;;;;;;;17.50;7.57;;;0.00;99.90;;;;;;2088566;28;20500;-63
2021/04/18 02:35:54;;;;;;;16.08;8.00;;;0.00;99.90;;;;;;2083798;28;20032;-62
2021/04/18 02:36:55;;;;;;;20.83;7.78;;;0.00;99.90;;;;;;2081368;28;20657;-62
2021/04/18 02:37:56;;;;;;;19.83;6.70;;;0.00;99.90;;;;;;2081999;28;20473;-62
2021/04/18 02:38:57;;;;;;;14.82;7.30;;;0.00;99.90;;;;;;2081200;28;20029;-62
2021/04/18 02:39:57;;;;;;;15.02;7.05;;;0.00;99.90;;;;;;2085413;28;20017;-62
2021/04/18 02:40:58;;;;;;;30.08;8.13;;;0.00;99.90;;;;;;2088364;28;20040;-62
2021/04/18 02:41:59;;;;;;;18.05;6.97;;;0.00;99.90;;;;;;2086035;28;20032;-62
2021/04/18 02:43:00;;;;;;;16.65;7.20;;;-0.10;99.90;;;;;;2086257;28;20029;-62
2021/04/18 02:44:01;;;;;;;17.63;6.40;;;-0.10;99.90;;;;;;2088593;28;20664;-62
2021/04/18 02:45:02;;;;;;;17.02;6.15;;;-0.10;99.90;;;;;;2087781;28;20048;-62
2021/04/18 02:46:03;;;;;;;15.65;6.20;;;-0.20;99.90;;;;;;2086430;28;20047;-62
2021/04/18 02:47:04;;;;;;;19.52;7.22;;;-0.20;99.90;;;;;;2081698;28;20481;-62
2021/04/18 02:48:05;;;;;;;17.25;6.22;;;-0.20;99.90;;;;;;2082867;28;20071;-62
2021/04/18 02:49:05;;;;;;;15.35;5.78;;;-0.30;99.90;;;;;;2080693;28;20033;-63
2021/04/18 02:50:07;;;;;;;15.90;6.40;;;-0.30;99.90;;;;;;2087575;28;20052;-62
2021/04/18 02:51:08;;;;;;;18.83;7.18;;;-0.30;99.90;;;;;;2087923;28;20036;-62
2021/04/18 02:52:09;;;;;;;16.50;5.88;;;-0.40;99.90;;;;;;2087795;28;20646;-62
2021/04/18 02:53:10;;;;;;;18.58;7.28;;;-0.40;99.90;;;;;;2087899;28;20021;-62
2021/04/18 02:54:11;;;;;;;15.82;6.18;;;-0.40;99.90;;;;;;2086215;28;20028;-61
2021/04/18 02:55:12;;;;;;;14.82;6.40;;;-0.40;99.90;;;;;;2081073;28;20030;-62
2021/04/18 02:56:13;;;;;;;20.48;6.53;;;-0.40;99.90;;;;;;2083126;28;20033;-62
2021/04/18 02:57:13;;;;;;;14.80;6.68;;;-0.40;99.90;;;;;;2084032;28;20036;-62
2021/04/18 02:58:14;;;;;;;21.80;6.35;;;-0.40;99.90;;;;;;2081629;28;20026;-62
2021/04/18 02:59:15;;;;;;;13.20;6.35;;;-0.40;99.90;;;;;;2087600;28;20047;-62
2021/04/18 03:00:16;;;;;;;15.45;7.25;;;-0.40;99.90;;;;;;2083604;28;20036;-62
2021/04/18 03:01:17;;;;;;;18.63;6.60;;;-0.40;99.90;;;;;;2088032;28;20564;-62
2021/04/18 03:02:18;;;;;;;22.08;8.13;;;-0.40;99.90;;;;;;2080822;28;20088;-62
2021/04/18 03:03:19;;;;;;;19.45;7.45;;;-0.30;99.90;;;;;;2082116;28;20500;-62
2021/04/18 03:04:19;;;;;;;13.68;7.18;;;-0.30;99.90;;;;;;2088689;28;20267;-62
2021/04/18 03:05:20;;;;;;;18.95;7.05;;;-0.30;99.90;;;;;;2088410;28;20031;-62
2021/04/18 03:06:21;;;;;;;12.30;6.97;;;-0.30;99.90;;;;;;2084073;28;20538;-62
2021/04/18 03:07:22;;;;;;;22.00;7.43;;;-0.20;99.90;;;;;;2082347;28;20030;-62
2021/04/18 03:08:22;;;;;;;17.83;6.75;;;-0.20;99.90;;;;;;2081596;28;20026;-62
2021/04/18 03:09:23;;;;;;;17.52;7.10;;;-0.30;99.90;;;;;;2087498;28;20029;-62
2021/04/18 03:10:24;;;;;;;15.88;6.93;;;-0.30;99.90;;;;;;2084361;28;20044;-62
2021/04/18 03:11:25;;;;;;;16.55;6.72;;;-0.30;99.90;;;;;;2088735;28;20036;-62
2021/04/18 03:12:25;;;;;;;13.23;6.72;;;-0.30;99.90;;;;;;2083227;28;20029;-62
2021/04/18 03:13:26;;;;;;;12.98;6.93;;;-0.30;99.90;;;;;;2080128;28;20040;-62
2021/04/18 03:14:27;;;;;;;17.45;6.97;;;-0.30;99.90;;;;;;2080336;28;20092;-63
2021/04/18 03:15:27;;;;;;;12.50;6.57;;;-0.40;99.90;;;;;;2083698;28;20025;-62
2021/04/18 03:16:29;;;;;;;19.63;7.90;;;-0.30;99.90;;;;;;2087969;28;20056;-61
2021/04/18 03:17:29;;;;;;;15.25;6.95;;;-0.40;99.90;;;;;;2086499;28;20035;-62
2021/04/18 03:18:30;;;;;;;11.73;6.05;;;-0.40;99.90;;;;;;2088082;28;20048;-62
2021/04/18 03:19:31;;;;;;;11.93;6.20;;;-0.40;99.90;;;;;;2086010;28;20532;-62
2021/04/18 03:20:31;;;;;;;13.00;6.68;;;-0.50;99.90;;;;;;2080479;28;20040;-62
2021/04/18 03:21:32;;;;;;;16.08;6.15;;;-0.50;99.90;;;;;;2079629;28;20037;-63
2021/04/18 03:22:33;;;;;;;15.00;6.55;;;-0.60;99.90;;;;;;2084922;28;20611;-61
2021/04/18 03:23:33;;;;;;;12.95;6.13;;;-0.60;99.90;;;;;;2087896;28;20033;-62
2021/04/18 03:24:37;;;;;;;15.55;6.68;;;-0.60;99.90;;;;;;2084564;28;20615;-62
2021/04/18 03:25:37;;;;;;;12.23;6.50;;;-0.70;99.90;;;;;;2087930;28;20108;-62
2021/04/18 03:26:38;;;;;;;11.68;6.10;;;-0.70;99.90;;;;;;2087594;28;20017;-63
2021/04/18 03:27:39;;;;;;;14.13;5.80;;;-0.70;99.90;;;;;;2079414;28;20025;-62
2021/04/18 03:28:40;;;;;;;15.82;6.25;;;-0.60;99.90;;;;;;2088010;28;20052;-62
2021/04/18 03:29:40;;;;;;;14.73;6.55;;;-0.60;99.90;;;;;;2084381;28;20037;-62
2021/04/18 03:30:42;;;;;;;14.40;6.32;;;-0.60;99.90;;;;;;2080275;28;20055;-62
2021/04/18 03:31:42;;;;;;;16.80;6.65;;;-0.60;99.90;;;;;;2087411;28;20029;-62
2021/04/18 03:32:43;;;;;;;10.88;5.97;;;-0.60;99.90;;;;;;2088054;28;20044;-62
2021/04/18 03:33:45;;;;;;;14.90;5.93;;;-0.60;99.90;;;;;;2087336;28;20059;-62
2021/04/18 03:34:46;;;;;;;17.33;6.78;;;-0.70;99.90;;;;;;2087649;28;20056;-62
2021/04/18 03:35:47;;;;;;;14.32;6.25;;;-0.70;99.90;;;;;;2080305;28;20029;-62
2021/04/18 03:36:47;;;;;;;12.93;6.68;;;-0.70;99.90;;;;;;2086859;28;20531;-62
2021/04/18 03:37:48;;;;;;;16.80;6.28;;;-0.70;99.90;;;;;;2085192;28;20680;-63
2021/04/18 03:38:49;;;;;;;15.43;6.85;;;-0.70;99.90;;;;;;2081519;28;20025;-63
2021/04/18 03:39:49;;;;;;;11.88;6.35;;;-0.70;99.90;;;;;;2080718;28;20041;-62
2021/04/18 03:40:50;;;;;;;13.75;6.35;;;-0.70;99.90;;;;;;2079508;28;20028;-63
2021/04/18 03:41:51;;;;;;;17.85;6.55;;;-0.70;99.90;;;;;;2086171;28;20103;-63
2021/04/18 03:42:51;;;;;;;11.95;6.25;;;-0.70;99.90;;;;;;2085839;28;20013;-63
2021/04/18 03:43:52;;;;;;;19.83;6.82;;;-0.70;99.90;;;;;;2080234;28;20024;-63
2021/04/18 03:44:53;;;;;;;13.18;5.90;;;-0.70;99.90;;;;;;2083370;28;20028;-62
2021/04/18 03:45:53;;;;;;;13.63;5.47;;;-0.70;99.90;;;;;;2080378;28;20453;-63
2021/04/18 03:46:54;;;;;;;12.77;5.63;;;-0.80;99.90;;;;;;2086418;28;20103;-62
2021/04/18 03:47:55;;;;;;;13.68;5.82;;;-0.80;99.90;;;;;;2088357;28;20017;-62
2021/04/18 03:48:55;;;;;;;13.30;6.55;;;-0.80;99.90;;;;;;2090087;28;20459;-62
2021/04/18 03:49:56;;;;;;;11.40;5.38;;;-0.80;99.90;;;;;;2085141;28;20025;-62
2021/04/18 03:50:57;;;;;;;12.75;6.15;;;-0.80;99.90;;;;;;2085927;28;20064;-62
2021/04/18 03:51:57;;;;;;;13.48;5.82;;;-0.80;99.90;;;;;;2088340;28;20147;-63
2021/04/18 03:52:59;;;;;;;16.00;5.85;;;-0.80;99.90;;;;;;2082116;28;20067;-62
2021/04/18 03:53:59;;;;;;;15.60;6.05;;;-0.90;99.90;;;;;;2089614;28;20029;-63
2021/04/18 03:55:00;;;;;;;12.80;6.32;;;-0.90;99.90;;;;;;2089275;28;20029;-62
2021/04/18 03:56:02;;;;;;;12.13;5.68;;;-0.90;99.90;;;;;;2096707;28;20025;-63
2021/04/18 03:57:03;;;;;;;11.77;6.00;;;-0.90;99.90;;;;;;2085576;28;20630;-63
2021/04/18 03:58:04;;;;;;;13.45;6.10;;;-1.00;99.90;;;;;;2082164;28;20025;-62
2021/04/18 03:59:04;;;;;;;21.50;6.70;;;-1.00;99.90;;;;;;2085479;28;20493;-63
2021/04/18 04:00:06;;;;;;;10.23;5.32;;;-1.00;99.90;;;;;;2088100;28;20690;-63
2021/04/18 04:01:07;;;;;;;16.35;6.53;;;-1.00;99.90;;;;;;2086830;28;20781;-62
2021/04/18 04:02:07;;;;;;;11.43;5.85;;;-1.00;99.90;;;;;;2085508;28;20056;-62
2021/04/18 04:03:08;;;;;;;13.05;5.68;;;-1.00;99.90;;;;;;2081052;28;20028;-62
2021/04/18 04:04:09;;;;;;;10.70;5.70;;;-1.00;99.90;;;;;;2089937;28;20021;-63
2021/04/18 04:05:10;;;;;;;12.15;5.90;;;-1.00;99.90;;;;;;2089719;28;20017;-63
2021/04/18 04:06:10;;;;;;;15.15;6.40;;;-1.00;99.90;;;;;;2089293;28;20116;-62
2021/04/18 04:07:11;;;;;;;10.65;6.45;;;-0.90;99.90;;;;;;2089082;28;20025;-63
2021/04/18 04:08:12;;;;;;;13.38;6.10;;;-1.00;99.90;;;;;;2089984;28;20020;-62
2021/04/18 04:09:13;;;;;;;12.70;5.97;;;-1.00;99.90;;;;;;2090034;28;20171;-63
2021/04/18 04:10:14;;;;;;;15.50;6.28;;;-1.00;99.90;;;;;;2087016;28;20393;-63
2021/04/18 04:11:14;;;;;;;9.93;5.80;;;-1.00;99.90;;;;;;2081447;28;20503;-63
2021/04/18 04:12:15;;;;;;;15.68;5.93;;;-1.00;99.90;;;;;;2088509;28;20045;-63
2021/04/18 04:13:16;;;;;;;14.05;6.65;;;-1.00;99.90;;;;;;2081355;28;20021;-63
2021/04/18 04:14:16;;;;;;;15.80;6.05;;;-1.00;99.90;;;;;;2089367;28;20049;-63
2021/04/18 04:15:17;;;;;;;11.20;5.82;;;-1.00;99.90;;;;;;2089637;28;20412;-62
2021/04/18 04:16:18;;;;;;;14.07;6.50;;;-1.00;99.90;;;;;;2085782;28;20022;-62
2021/04/18 04:17:19;;;;;;;15.95;6.47;;;-0.90;99.90;;;;;;2087782;28;20459;-62
2021/04/18 04:18:20;;;;;;;12.75;5.88;;;-0.90;99.90;;;;;;2080432;28;20572;-62
2021/04/18 04:19:20;;;;;;;11.93;5.97;;;-0.90;99.90;;;;;;2089264;28;20045;-62
2021/04/18 04:20:21;;;;;;;12.88;6.25;;;-0.90;99.90;;;;;;2088037;28;20021;-62
2021/04/18 04:21:22;;;;;;;10.18;5.60;;;-0.90;99.90;;;;;;2089975;28;20029;-62
2021/04/18 04:22:22;;;;;;;11.80;5.63;;;-0.90;99.90;;;;;;2089849;28;20021;-62
2021/04/18 04:23:23;;;;;;;11.13;5.93;;;-0.90;99.90;;;;;;2089940;28;20082;-62
2021/04/18 04:24:24;;;;;;;11.55;6.32;;;-0.90;99.90;;;;;;2086362;28;20025;-62
2021/04/18 04:25:25;;;;;;;12.13;6.43;;;-0.90;99.90;;;;;;2080858;28;20025;-62
2021/04/18 04:26:26;;;;;;;9.85;5.57;;;-0.90;99.90;;;;;;2081683;28;20061;-62
2021/04/18 04:27:27;;;;;;;9.77;5.82;;;-0.90;99.90;;;;;;2081913;28;20080;-62
2021/04/18 04:28:27;;;;;;;10.52;5.75;;;-0.90;99.90;;;;;;2086904;28;20045;-62
2021/04/18 04:29:28;;;;;;;10.13;6.05;;;-0.90;99.90;;;;;;2089606;28;20021;-62
2021/04/18 04:30:29;;;;;;;12.98;6.50;;;-0.90;99.90;;;;;;2088954;28;20021;-62
2021/04/18 04:31:29;;;;;;;13.57;5.90;;;-0.90;99.90;;;;;;2085927;28;20087;-62
2021/04/18 04:32:30;;;;;;;17.80;6.03;;;-0.90;99.90;;;;;;2080398;28;20034;-62
2021/04/18 04:33:37;;;;;;;12.60;6.65;;;-0.90;99.90;;;;;;2083849;28;20034;-62
2021/04/18 04:34:38;;;;;;;14.43;6.43;;;-0.90;99.90;;;;;;2086300;28;20771;-62
2021/04/18 04:35:40;;;;;;;25.45;18.90;;;-0.90;99.90;;;;;;2085727;28;20096;-62
2021/04/18 04:36:40;;;;;;;;;;;-0.90;99.90;;;;;;2088191;28;20028;-62
2021/04/18 04:37:41;;;;;;;18.40;10.98;;;-0.90;99.90;;;;;;2089522;28;20292;-62
2021/04/18 04:38:42;;;;;;;14.75;7.78;;;-0.90;99.90;;;;;;2084257;28;20504;-62
2021/04/18 04:39:42;;;;;;;16.42;7.20;;;-0.90;99.90;;;;;;2084672;28;20108;-62
2021/04/18 04:40:43;;;;;;;13.00;6.72;;;-0.90;99.90;;;;;;2087237;28;20551;-62
2021/04/18 04:41:44;;;;;;;10.30;6.53;;;-0.90;99.90;;;;;;2089545;28;20025;-62
2021/04/18 04:42:45;;;;;;;11.60;5.97;;;-0.90;99.90;;;;;;2089421;28;20021;-62
2021/04/18 04:43:46;;;;;;;14.32;5.60;;;-0.90;99.90;;;;;;2089733;28;20500;-62
2021/04/18 04:44:47;;;;;;;13.35;5.82;;;-0.90;99.90;;;;;;2089575;28;20048;-62
2021/04/18 04:45:48;;;;;;;12.65;5.82;;;-0.90;99.90;;;;;;2089648;28;20021;-63
2021/04/18 04:46:48;;;;;;;15.68;7.15;;;-0.90;99.90;;;;;;2088959;28;20024;-62
2021/04/18 04:47:49;;;;;;;12.00;6.70;;;-0.90;99.90;;;;;;2088574;28;20469;-62
2021/04/18 04:48:50;;;;;;;16.50;6.45;;;-0.90;99.90;;;;;;2081737;28;20021;-62
2021/04/18 04:49:50;;;;;;;13.65;6.40;;;-0.90;99.90;;;;;;2084092;28;20029;-62
2021/04/18 04:50:51;;;;;;;12.32;6.13;;;-0.90;99.90;;;;;;2085647;28;20013;-62
2021/04/18 04:51:52;;;;;;;14.05;6.30;;;-0.90;99.90;;;;;;2082965;28;20104;-62
2021/04/18 04:52:54;;;;;;;12.55;6.13;;;-0.90;99.90;;;;;;2081376;28;20021;-62
2021/04/18 04:53:54;;;;;;;11.95;6.28;;;-0.90;99.90;;;;;;2081587;28;20717;-62
2021/04/18 04:54:55;;;;;;;11.10;5.78;;;-0.90;99.90;;;;;;2084008;28;20026;-64
2021/04/18 04:55:56;;;;;;;10.55;6.07;;;-0.90;99.90;;;;;;2085586;28;20026;-62
2021/04/18 04:56:57;;;;;;;13.35;5.93;;;-0.90;99.90;;;;;;2082351;28;20036;-62
2021/04/18 04:57:57;;;;;;;12.93;5.85;;;-0.90;99.90;;;;;;2081317;28;20096;-62
2021/04/18 04:58:58;;;;;;;12.35;5.82;;;-0.90;99.90;;;;;;2082159;28;20021;-62
2021/04/18 04:59:59;;;;;;;13.07;6.13;;;-0.90;99.90;;;;;;2082995;28;20024;-62
2021/04/18 05:01:00;;;;;;;13.18;5.43;;;-0.90;99.90;;;;;;2083885;28;20025;-62
2021/04/18 05:02:00;;;;;;;14.05;6.25;;;-0.90;99.90;;;;;;2085364;28;20100;-62
2021/04/18 05:03:01;;;;;;;16.08;6.32;;;-0.90;99.90;;;;;;2088443;28;20021;-62
2021/04/18 05:04:02;;;;;;;14.32;6.30;;;-0.90;99.90;;;;;;2083486;28;20026;-62
2021/04/18 05:05:03;;;;;;;14.98;5.95;;;-0.90;99.90;;;;;;2083100;28;20024;-62
2021/04/18 05:06:04;;;;;;;12.43;5.45;;;-0.90;99.90;;;;;;2085245;28;20017;-62
2021/04/18 05:07:05;;;;;;;13.43;6.13;;;-0.90;99.90;;;;;;2085973;28;20452;-63
2021/04/18 05:08:06;;;;;;;10.95;6.03;;;-0.90;99.90;;;;;;2088087;28;20044;-64
2021/04/18 05:09:06;;;;;;;14.82;5.90;;;-0.90;99.90;;;;;;2080434;28;20030;-64
2021/04/18 05:10:07;;;;;;;15.30;6.00;;;-0.90;99.90;;;;;;2082966;28;20059;-62
2021/04/18 05:11:08;;;;;;;10.38;5.55;;;-0.90;99.90;;;;;;2086266;28;20025;-63
2021/04/18 05:12:10;;;;;;;10.52;6.32;;;-0.80;99.90;;;;;;2083085;28;20021;-62
2021/04/18 05:13:11;;;;;;;15.60;6.40;;;-0.80;99.90;;;;;;2081247;28;20025;-62
2021/04/18 05:14:11;;;;;;;13.43;5.55;;;-0.80;99.90;;;;;;2088463;28;20021;-62
2021/04/18 05:15:12;;;;;;;10.45;5.40;;;-0.80;99.90;;;;;;2089387;28;20576;-62
2021/04/18 05:16:13;;;;;;;12.55;6.13;;;-0.80;99.90;;;;;;2089503;28;20100;-62